Time;durP1;ratioP1;P1;durP2;ratioP2;P2;SDS_P1;SDS_P2;PMS_P1;PMS_P2;Temp;Humidity;BMP_temperature;BMP_pressure;BME280_temperature;BME280_humidity;BME280_pressure;Samples;Min_cycle;Max_cycle;Signal;HPM_P1;HPM_P2
2023/12/15 00:00:18;;;;;;;13.83;9.33;;;;;;;;;;5057829;28;20834;-86
2023/12/15 00:02:45;;;;;;;15.63;10.00;;;;;;;;;;5127944;22;20496;-86
2023/12/15 00:05:14;;;;;;;16.40;9.60;;;;;;;;;;5029863;28;20456;-88
2023/12/15 00:07:41;;;;;;;16.53;10.60;;;;;;;;;;5034168;28;20454;-87
2023/12/15 00:10:09;;;;;;;14.70;9.47;;;;;;;;;;5043560;28;20928;-86
2023/12/15 00:12:38;;;;;;;17.27;10.20;;;;;;;;;;5038705;28;21041;-86
2023/12/15 00:15:05;;;;;;;13.70;9.90;;;;;;;;;;5044656;28;20564;-86
2023/12/15 00:17:35;;;;;;;18.50;11.27;;;;;;;;;;5046681;28;20441;-87
2023/12/15 00:20:03;;;;;;;16.53;9.90;;;;;;;;;;5052809;28;20448;-87
2023/12/15 00:22:33;;;;;;;21.33;12.17;;;;;;;;;;5035283;28;20488;-87
2023/12/15 00:25:00;;;;;;;16.93;10.80;;;;;;;;;;5048727;28;20452;-86
2023/12/15 00:27:28;;;;;;;20.00;10.67;;;;;;;;;;5050123;28;20444;-87
2023/12/15 00:29:56;;;;;;;17.97;9.77;;;;;;;;;;5059136;28;20424;-88
2023/12/15 00:32:28;;;;;;;17.93;10.67;;;;;;;;;;5055839;28;20484;-88
2023/12/15 00:34:58;;;;;;;17.27;12.27;;;;;;;;;;5049079;28;20502;-86
2023/12/15 00:48:09;;;;;;;16.17;11.63;;;;;;;;;;5638928;22;20494;-87
2023/12/15 00:50:36;;;;;;;17.80;11.27;;;;;;;;;;5036730;28;20891;-84
2023/12/15 00:53:03;;;;;;;18.93;11.00;;;;;;;;;;5062180;28;20477;-87
2023/12/15 00:55:33;;;;;;;17.47;10.73;;;;;;;;;;5042655;28;20481;-87
2023/12/15 00:58:00;;;;;;;18.70;11.93;;;;;;;;;;5048839;22;20567;-85
2023/12/15 01:00:31;;;;;;;17.23;11.60;;;;;;;;;;5042675;28;20516;-86
2023/12/15 01:03:02;;;;;;;16.67;11.20;;;;;;;;;;5037783;28;20923;-86
2023/12/15 01:05:33;;;;;;;19.60;10.83;;;;;;;;;;5043364;28;20425;-86
2023/12/15 01:08:00;;;;;;;14.27;9.53;;;;;;;;;;5034182;28;20986;-85
2023/12/15 01:10:28;;;;;;;17.70;10.60;;;;;;;;;;5030622;28;20461;-86
2023/12/15 01:12:56;;;;;;;16.43;11.97;;;;;;;;;;5040963;28;20540;-86
2023/12/15 01:15:23;;;;;;;16.43;10.60;;;;;;;;;;5050624;28;20554;-86
2023/12/15 01:17:50;;;;;;;19.30;10.70;;;;;;;;;;5042245;28;20454;-86
2023/12/15 01:20:22;;;;;;;16.97;12.00;;;;;;;;;;5036925;28;20460;-87
2023/12/15 01:22:50;;;;;;;18.60;10.70;;;;;;;;;;5057335;28;20992;-85
2023/12/15 01:25:17;;;;;;;15.83;11.27;;;;;;;;;;5042630;28;20516;-85
2023/12/15 01:27:44;;;;;;;17.30;12.07;;;;;;;;;;5040511;28;20445;-87
2023/12/15 01:30:11;;;;;;;16.70;11.80;;;;;;;;;;5033984;28;20455;-86
2023/12/15 01:32:39;;;;;;;15.80;10.20;;;;;;;;;;5044196;28;21023;-84
2023/12/15 01:35:15;;;;;;;14.20;10.07;;;;;;;;;;5041342;28;20474;-87
2023/12/15 01:37:44;;;;;;;14.70;10.00;;;;;;;;;;5047183;28;20465;-86
2023/12/15 01:40:12;;;;;;;15.80;10.43;;;;;;;;;;5044974;28;20476;-88
2023/12/15 01:42:43;;;;;;;17.77;10.27;;;;;;;;;;5039101;28;20466;-87
2023/12/15 01:45:12;;;;;;;13.80;10.33;;;;;;;;;;5038533;28;20815;-88
2023/12/15 01:47:43;;;;;;;16.37;10.47;;;;;;;;;;5035433;28;20537;-86
2023/12/15 01:50:11;;;;;;;17.27;11.37;;;;;;;;;;5032387;28;20510;-86
2023/12/15 01:52:38;;;;;;;16.93;11.00;;;;;;;;;;5043046;28;20488;-84
2023/12/15 01:55:06;;;;;;;13.17;9.37;;;;;;;;;;5047792;28;21102;-86
2023/12/15 01:57:34;;;;;;;16.70;10.50;;;;;;;;;;5041142;28;20520;-85
2023/12/15 02:00:06;;;;;;;15.27;9.60;;;;;;;;;;5047595;28;20454;-86
2023/12/15 02:02:37;;;;;;;17.40;11.87;;;;;;;;;;5031651;28;20469;-87
2023/12/15 02:05:05;;;;;;;16.73;10.33;;;;;;;;;;5031693;28;20470;-86
2023/12/15 02:07:32;;;;;;;17.40;9.50;;;;;;;;;;5212335;22;20520;-89
2023/12/15 02:10:00;;;;;;;20.17;11.53;;;;;;;;;;5030674;28;20488;-87
2023/12/15 02:12:27;;;;;;;17.40;10.10;;;;;;;;;;5039593;28;20926;-87
2023/12/15 02:14:54;;;;;;;15.23;10.63;;;;;;;;;;5052274;28;20527;-87
2023/12/15 02:17:22;;;;;;;15.43;10.43;;;;;;;;;;5051816;28;20492;-86
2023/12/15 02:19:49;;;;;;;16.43;11.63;;;;;;;;;;5048994;28;20463;-86
2023/12/15 02:22:17;;;;;;;16.50;10.70;;;;;;;;;;5044011;28;20480;-87
2023/12/15 02:24:47;;;;;;;21.40;12.70;;;;;;;;;;5058840;28;20444;-86
2023/12/15 02:27:15;;;;;;;15.10;10.70;;;;;;;;;;5060843;28;20458;-88
2023/12/15 02:29:47;;;;;;;19.00;12.83;;;;;;;;;;5053112;28;20533;-86
2023/12/15 02:32:20;;;;;;;15.50;11.17;;;;;;;;;;5066643;28;20517;-88
2023/12/15 02:34:47;;;;;;;16.50;10.50;;;;;;;;;;5153921;22;20568;-86
2023/12/15 02:37:31;;;;;;;16.67;10.83;;;;;;;;;;5032221;28;20497;-84
2023/12/15 02:40:10;;;;;;;16.47;10.70;;;;;;;;;;5015627;28;20437;-87
2023/12/15 02:42:37;;;;;;;17.13;11.47;;;;;;;;;;5016853;28;20528;-87
2023/12/15 02:45:05;;;;;;;17.40;11.00;;;;;;;;;;5017347;28;20442;-86
2023/12/15 02:50:11;;;;;;;18.87;12.00;;;;;;;;;;5027820;28;20465;-86
2023/12/15 02:52:39;;;;;;;18.20;10.90;;;;;;;;;;5012042;28;20461;-85
2023/12/15 02:55:07;;;;;;;14.57;10.10;;;;;;;;;;5030485;28;20482;-86
2023/12/15 02:57:37;;;;;;;19.73;11.07;;;;;;;;;;5025735;28;20801;-87
2023/12/15 03:00:04;;;;;;;15.83;9.97;;;;;;;;;;5021659;28;21842;-87
2023/12/15 03:02:32;;;;;;;15.43;9.63;;;;;;;;;;5050675;28;20506;-87
2023/12/15 03:04:59;;;;;;;14.43;10.73;;;;;;;;;;5027109;28;20962;-87
2023/12/15 03:07:26;;;;;;;14.90;9.20;;;;;;;;;;5052999;28;20517;-88
2023/12/15 03:09:53;;;;;;;19.73;11.67;;;;;;;;;;5024016;28;20462;-88
2023/12/15 03:12:21;;;;;;;18.67;11.40;;;;;;;;;;5022858;28;20483;-87
2023/12/15 03:14:48;;;;;;;17.70;10.73;;;;;;;;;;5014869;28;20464;-87
2023/12/15 03:17:16;;;;;;;17.50;10.47;;;;;;;;;;5018369;28;20525;-85
2023/12/15 03:19:44;;;;;;;17.33;11.20;;;;;;;;;;5018382;28;20532;-86
2023/12/15 03:22:11;;;;;;;20.00;10.17;;;;;;;;;;5051829;28;20568;-88
2023/12/15 03:24:38;;;;;;;17.23;11.07;;;;;;;;;;5063254;28;20437;-89
2023/12/15 03:27:06;;;;;;;15.70;10.40;;;;;;;;;;5019821;28;20523;-86
2023/12/15 03:29:33;;;;;;;16.30;10.50;;;;;;;;;;5020573;28;20544;-88
2023/12/15 03:32:00;;;;;;;15.77;10.03;;;;;;;;;;5012680;28;20478;-85
2023/12/15 03:34:27;;;;;;;16.40;9.90;;;;;;;;;;5017313;28;20452;-85
2023/12/15 03:36:55;;;;;;;15.43;10.13;;;;;;;;;;5006922;28;20486;-87
2023/12/15 03:39:24;;;;;;;15.93;9.50;;;;;;;;;;5026055;28;20456;-87
2023/12/15 03:41:52;;;;;;;17.83;10.60;;;;;;;;;;5021989;28;20470;-88
2023/12/15 03:44:19;;;;;;;13.17;10.03;;;;;;;;;;5020230;28;20493;-87
2023/12/15 03:46:46;;;;;;;14.43;9.93;;;;;;;;;;5037146;28;20542;-87
2023/12/15 03:49:13;;;;;;;14.10;10.33;;;;;;;;;;5050816;28;20501;-86
2023/12/15 03:51:41;;;;;;;16.93;10.63;;;;;;;;;;5016191;28;20474;-88
2023/12/15 03:54:08;;;;;;;16.60;11.30;;;;;;;;;;5015684;28;20546;-87
2023/12/15 03:56:37;;;;;;;17.50;10.37;;;;;;;;;;5021766;28;20485;-87
2023/12/15 03:59:05;;;;;;;18.67;10.70;;;;;;;;;;5021985;28;20453;-88
2023/12/15 04:01:33;;;;;;;12.70;9.80;;;;;;;;;;5048242;28;20538;-87
2023/12/15 04:04:00;;;;;;;15.63;10.83;;;;;;;;;;5027352;28;20521;-87
2023/12/15 04:06:27;;;;;;;13.37;9.40;;;;;;;;;;5029020;28;20460;-87
2023/12/15 04:08:55;;;;;;;14.33;10.00;;;;;;;;;;5042089;28;20458;-86
2023/12/15 04:11:24;;;;;;;16.80;9.40;;;;;;;;;;5056197;28;20478;-88
2023/12/15 04:13:55;;;;;;;13.30;9.67;;;;;;;;;;5042634;28;20461;-85
2023/12/15 04:16:22;;;;;;;14.53;9.80;;;;;;;;;;5032045;28;20542;-88
2023/12/15 04:18:49;;;;;;;14.53;9.20;;;;;;;;;;5020065;28;20533;-87
2023/12/15 04:21:16;;;;;;;20.63;11.47;;;;;;;;;;5016951;28;20469;-87
2023/12/15 04:23:43;;;;;;;14.27;9.07;;;;;;;;;;5036840;28;21021;-87
2023/12/15 04:26:11;;;;;;;13.07;8.50;;;;;;;;;;5014778;28;20463;-86
2023/12/15 04:28:40;;;;;;;13.20;8.63;;;;;;;;;;5016396;28;20452;-87
2023/12/15 04:31:12;;;;;;;12.73;9.20;;;;;;;;;;5010694;28;20530;-86
2023/12/15 04:33:39;;;;;;;12.20;9.60;;;;;;;;;;5040463;28;20558;-86
2023/12/15 04:36:10;;;;;;;16.17;9.50;;;;;;;;;;5015694;28;20515;-86
2023/12/15 04:38:38;;;;;;;13.63;9.10;;;;;;;;;;5020721;28;20461;-86
2023/12/15 04:41:06;;;;;;;14.80;9.33;;;;;;;;;;5008202;28;20961;-87
2023/12/15 04:43:33;;;;;;;12.27;8.50;;;;;;;;;;5036753;28;20490;-89
2023/12/15 04:46:00;;;;;;;14.20;8.60;;;;;;;;;;5032960;28;20462;-88
2023/12/15 04:48:27;;;;;;;15.37;9.10;;;;;;;;;;5039279;28;20529;-88
2023/12/15 04:50:54;;;;;;;15.20;9.77;;;;;;;;;;5040034;28;20433;-88
2023/12/15 04:53:22;;;;;;;13.50;9.70;;;;;;;;;;5047923;28;20515;-86
2023/12/15 04:55:49;;;;;;;16.70;8.67;;;;;;;;;;5016136;28;20481;-88
2023/12/15 04:58:17;;;;;;;15.50;8.83;;;;;;;;;;5020163;28;20462;-87
2023/12/15 05:00:45;;;;;;;13.70;9.23;;;;;;;;;;5018475;28;20889;-86
2023/12/15 05:03:12;;;;;;;17.33;10.53;;;;;;;;;;5019906;28;20473;-85
2023/12/15 05:05:47;;;;;;;13.73;9.57;;;;;;;;;;5019989;28;20446;-87
2023/12/15 05:08:14;;;;;;;13.20;9.97;;;;;;;;;;5049223;28;20836;-88
2023/12/15 05:10:42;;;;;;;14.63;9.37;;;;;;;;;;5020288;28;20458;-87
2023/12/15 05:13:09;;;;;;;17.00;10.30;;;;;;;;;;5020670;28;20481;-86
2023/12/15 05:15:37;;;;;;;12.27;9.37;;;;;;;;;;5050239;28;20521;-87
2023/12/15 05:18:06;;;;;;;17.07;10.87;;;;;;;;;;5020704;28;20832;-88
2023/12/15 05:20:38;;;;;;;17.90;9.57;;;;;;;;;;5047450;28;20930;-88
2023/12/15 05:23:05;;;;;;;13.70;9.40;;;;;;;;;;5012983;28;20478;-88
2023/12/15 05:25:33;;;;;;;12.30;9.00;;;;;;;;;;5021953;28;20446;-86
2023/12/15 05:28:00;;;;;;;14.63;10.20;;;;;;;;;;5023030;28;20471;-87
2023/12/15 05:30:28;;;;;;;12.77;9.83;;;;;;;;;;5028306;28;20430;-90
2023/12/15 05:32:55;;;;;;;12.17;9.00;;;;;;;;;;5027189;28;20529;-87
2023/12/15 05:35:23;;;;;;;13.53;9.57;;;;;;;;;;5044030;28;20457;-86
2023/12/15 05:38:03;;;;;;;16.00;10.17;;;;;;;;;;5026812;28;20459;-87
2023/12/15 05:40:30;;;;;;;13.50;8.23;;;;;;;;;;5027219;28;20468;-87
2023/12/15 05:42:57;;;;;;;12.43;8.87;;;;;;;;;;5057659;28;20568;-87
2023/12/15 05:45:25;;;;;;;12.90;9.17;;;;;;;;;;5023362;28;20492;-87
2023/12/15 05:47:52;;;;;;;13.27;8.50;;;;;;;;;;5021369;28;20874;-87
2023/12/15 05:50:20;;;;;;;16.83;9.33;;;;;;;;;;5045850;28;20482;-87
2023/12/15 05:52:47;;;;;;;14.10;9.77;;;;;;;;;;5012303;28;20825;-86
2023/12/15 05:55:15;;;;;;;11.77;8.80;;;;;;;;;;5025312;28;20446;-88
2023/12/15 05:57:43;;;;;;;14.47;9.13;;;;;;;;;;5034918;28;20492;-85
2023/12/15 06:00:10;;;;;;;15.37;8.70;;;;;;;;;;5022748;28;20446;-87
2023/12/15 06:02:37;;;;;;;14.90;9.97;;;;;;;;;;5062215;28;20469;-87
2023/12/15 06:05:07;;;;;;;14.30;9.60;;;;;;;;;;5021168;28;20844;-88
2023/12/15 06:07:34;;;;;;;13.20;8.67;;;;;;;;;;5041756;28;20454;-86
2023/12/15 06:10:02;;;;;;;14.13;9.10;;;;;;;;;;5018975;28;20502;-85
2023/12/15 06:12:29;;;;;;;11.93;8.63;;;;;;;;;;5022002;28;20469;-86
2023/12/15 06:14:56;;;;;;;13.00;9.17;;;;;;;;;;5050562;28;20459;-88
2023/12/15 06:17:24;;;;;;;13.67;9.20;;;;;;;;;;5026239;28;20500;-87
2023/12/15 06:19:51;;;;;;;13.93;9.00;;;;;;;;;;5019177;28;20455;-85
2023/12/15 06:22:18;;;;;;;12.67;9.27;;;;;;;;;;5023799;28;20515;-86
2023/12/15 06:24:46;;;;;;;13.60;9.23;;;;;;;;;;5040279;28;20442;-87
2023/12/15 06:27:13;;;;;;;13.47;9.30;;;;;;;;;;5021934;28;20561;-86
2023/12/15 06:29:41;;;;;;;14.37;9.90;;;;;;;;;;5058144;28;21044;-88
2023/12/15 06:32:10;;;;;;;17.00;9.60;;;;;;;;;;5018333;28;20475;-87
2023/12/15 06:34:48;;;;;;;13.90;9.93;;;;;;;;;;5482533;22;20699;-87
2023/12/15 06:37:15;;;;;;;13.67;8.57;;;;;;;;;;5043244;28;20493;-88
2023/12/15 06:39:45;;;;;;;15.70;9.70;;;;;;;;;;5043665;28;20477;-89
2023/12/15 06:42:12;;;;;;;10.67;7.80;;;;;;;;;;5042239;28;20512;-86
2023/12/15 06:44:41;;;;;;;13.37;9.80;;;;;;;;;;5037235;28;20644;-86
2023/12/15 06:47:09;;;;;;;14.20;8.73;;;;;;;;;;5036572;28;20481;-89
2023/12/15 06:49:37;;;;;;;13.53;8.17;;;;;;;;;;5033093;28;20459;-87
2023/12/15 06:52:05;;;;;;;10.73;8.10;;;;;;;;;;5040820;28;20501;-88
2023/12/15 06:54:33;;;;;;;13.17;8.70;;;;;;;;;;5039163;28;20481;-87
2023/12/15 06:57:03;;;;;;;11.03;8.93;;;;;;;;;;5035681;28;20501;-87
2023/12/15 06:59:30;;;;;;;11.60;8.37;;;;;;;;;;5025638;28;20438;-85
2023/12/15 07:01:58;;;;;;;12.83;8.53;;;;;;;;;;5031896;28;20534;-89
2023/12/15 07:04:26;;;;;;;12.40;8.97;;;;;;;;;;5048964;28;20454;-88
2023/12/15 07:06:54;;;;;;;8.97;7.40;;;;;;;;;;5031688;28;20467;-88
2023/12/15 07:09:22;;;;;;;13.30;8.10;;;;;;;;;;5030566;28;20458;-86
2023/12/15 07:11:49;;;;;;;11.47;7.67;;;;;;;;;;5035774;28;20562;-87
2023/12/15 07:14:16;;;;;;;15.97;8.50;;;;;;;;;;5025751;28;20459;-89
2023/12/15 07:16:43;;;;;;;14.13;9.23;;;;;;;;;;5029483;28;20552;-88
2023/12/15 07:19:11;;;;;;;15.63;9.13;;;;;;;;;;5031073;28;20516;-88
2023/12/15 07:21:38;;;;;;;17.07;12.27;;;;;;;;;;5037038;28;20472;-88
2023/12/15 07:24:06;;;;;;;12.00;9.20;;;;;;;;;;5029760;28;20451;-87
2023/12/15 07:26:33;;;;;;;16.20;10.17;;;;;;;;;;5025429;28;20470;-88
2023/12/15 07:29:02;;;;;;;12.67;9.33;;;;;;;;;;5027989;28;20456;-88
2023/12/15 07:31:29;;;;;;;12.53;8.60;;;;;;;;;;5032294;28;20537;-87
2023/12/15 07:33:56;;;;;;;13.20;8.70;;;;;;;;;;5041078;28;20468;-88
2023/12/15 07:36:24;;;;;;;14.47;9.60;;;;;;;;;;5042047;28;20470;-88
2023/12/15 07:38:53;;;;;;;13.27;8.20;;;;;;;;;;5043355;28;20452;-86
2023/12/15 07:41:37;;;;;;;13.23;8.83;;;;;;;;;;5045210;28;20474;-88
2023/12/15 07:44:07;;;;;;;13.37;8.67;;;;;;;;;;5046787;28;20461;-87
2023/12/15 07:46:34;;;;;;;12.17;8.30;;;;;;;;;;5048594;28;20438;-86
2023/12/15 07:49:01;;;;;;;16.30;9.97;;;;;;;;;;5037908;28;20447;-86
2023/12/15 07:51:30;;;;;;;11.90;8.90;;;;;;;;;;5036172;28;20480;-86
2023/12/15 07:53:58;;;;;;;14.63;9.37;;;;;;;;;;5030832;28;20434;-86
2023/12/15 07:56:26;;;;;;;16.17;8.80;;;;;;;;;;5040481;28;20536;-86
2023/12/15 07:58:53;;;;;;;15.87;9.60;;;;;;;;;;5051505;28;20445;-87
2023/12/15 08:01:21;;;;;;;11.73;8.43;;;;;;;;;;5054083;28;20501;-87
2023/12/15 08:03:50;;;;;;;12.03;8.60;;;;;;;;;;5055545;28;20525;-86
2023/12/15 08:06:19;;;;;;;11.53;8.37;;;;;;;;;;5045304;28;20466;-87
2023/12/15 08:08:56;;;;;;;12.60;8.93;;;;;;;;;;5050223;28;20458;-88
2023/12/15 08:11:25;;;;;;;11.93;7.73;;;;;;;;;;5044614;28;20468;-86
2023/12/15 08:13:54;;;;;;;12.77;8.67;;;;;;;;;;5042640;28;20902;-86
2023/12/15 08:16:22;;;;;;;12.27;8.13;;;;;;;;;;5037816;28;20481;-86
2023/12/15 08:18:50;;;;;;;11.43;8.20;;;;;;;;;;5043533;28;20476;-87
2023/12/15 08:21:17;;;;;;;15.57;9.03;;;;;;;;;;5040167;28;20458;-89
2023/12/15 08:23:44;;;;;;;15.17;9.27;;;;;;;;;;5044677;28;20472;-88
2023/12/15 08:26:19;;;;;;;15.37;10.40;;;;;;;;;;5056318;28;20445;-87
2023/12/15 08:28:46;;;;;;;12.23;9.23;;;;;;;;;;5050705;28;20433;-87
2023/12/15 08:31:14;;;;;;;14.40;8.67;;;;;;;;;;5030070;28;20942;-86
2023/12/15 08:33:42;;;;;;;16.13;10.27;;;;;;;;;;5028814;28;20476;-87
2023/12/15 08:36:10;;;;;;;16.40;11.47;;;;;;;;;;5035200;28;20457;-87
2023/12/15 08:38:37;;;;;;;15.00;9.63;;;;;;;;;;5034053;28;20467;-86
2023/12/15 08:41:06;;;;;;;15.70;9.10;;;;;;;;;;5040751;28;21023;-86
2023/12/15 08:43:36;;;;;;;12.13;8.03;;;;;;;;;;5040715;28;20474;-86
2023/12/15 08:46:04;;;;;;;13.63;9.70;;;;;;;;;;5037657;28;20968;-87
2023/12/15 08:48:31;;;;;;;14.70;9.83;;;;;;;;;;5030323;28;20966;-87
2023/12/15 08:50:58;;;;;;;11.80;9.27;;;;;;;;;;5042600;28;20458;-86
2023/12/15 08:53:25;;;;;;;13.43;8.80;;;;;;;;;;5036901;28;20461;-87
2023/12/15 08:55:53;;;;;;;15.37;10.03;;;;;;;;;;5039296;28;20984;-88
2023/12/15 08:58:23;;;;;;;14.47;9.43;;;;;;;;;;5039819;28;20516;-88
2023/12/15 09:00:50;;;;;;;14.00;9.73;;;;;;;;;;5039577;28;20446;-87
2023/12/15 09:03:18;;;;;;;14.70;10.83;;;;;;;;;;5034611;28;20508;-87
2023/12/15 09:05:45;;;;;;;18.30;12.40;;;;;;;;;;5039220;28;20458;-88
2023/12/15 09:08:24;;;;;;;20.60;13.00;;;;;;;;;;5040738;28;20454;-87
2023/12/15 09:10:51;;;;;;;16.60;12.10;;;;;;;;;;5035852;28;20458;-87
2023/12/15 09:13:19;;;;;;;18.57;13.80;;;;;;;;;;5049841;28;20486;-87
2023/12/15 09:15:46;;;;;;;20.40;13.33;;;;;;;;;;5038143;28;20889;-87
2023/12/15 09:18:14;;;;;;;20.73;13.77;;;;;;;;;;5032636;28;20571;-88
2023/12/15 09:20:41;;;;;;;22.60;12.13;;;;;;;;;;5035320;28;20450;-85
2023/12/15 09:23:11;;;;;;;20.57;12.97;;;;;;;;;;5028932;28;20477;-88
2023/12/15 09:25:38;;;;;;;18.73;11.97;;;;;;;;;;5030456;28;20446;-87
2023/12/15 09:28:05;;;;;;;19.90;12.90;;;;;;;;;;5037623;28;20462;-88
2023/12/15 09:30:34;;;;;;;23.83;13.77;;;;;;;;;;5040197;28;20482;-87
2023/12/15 09:33:04;;;;;;;19.13;12.30;;;;;;;;;;5036055;28;20471;-87
2023/12/15 09:35:31;;;;;;;21.47;14.03;;;;;;;;;;5036421;28;20469;-87
2023/12/15 09:37:59;;;;;;;19.00;12.30;;;;;;;;;;5033093;28;20866;-88
2023/12/15 09:40:29;;;;;;;20.80;13.43;;;;;;;;;;5031354;28;20475;-87
2023/12/15 09:42:57;;;;;;;18.63;12.60;;;;;;;;;;5039582;28;20541;-87
2023/12/15 09:45:24;;;;;;;21.47;12.57;;;;;;;;;;5053605;28;20460;-87
2023/12/15 09:47:51;;;;;;;19.40;13.20;;;;;;;;;;5041157;28;20974;-87
2023/12/15 09:50:20;;;;;;;17.80;12.77;;;;;;;;;;5039322;28;20454;-87
2023/12/15 09:52:51;;;;;;;18.57;11.60;;;;;;;;;;5026459;28;20585;-86
2023/12/15 09:55:21;;;;;;;16.70;11.13;;;;;;;;;;5037230;28;20457;-87
2023/12/15 09:57:49;;;;;;;18.33;11.83;;;;;;;;;;5039672;28;20567;-87
2023/12/15 10:00:16;;;;;;;24.43;13.03;;;;;;;;;;5033345;28;20521;-86
2023/12/15 10:02:44;;;;;;;22.53;13.50;;;;;;;;;;5036904;28;20490;-87
2023/12/15 10:05:12;;;;;;;21.63;14.10;;;;;;;;;;5024329;28;20956;-88
2023/12/15 10:07:39;;;;;;;19.90;13.10;;;;;;;;;;5031473;28;20568;-86
2023/12/15 10:10:07;;;;;;;21.37;13.80;;;;;;;;;;5033602;28;20946;-87
2023/12/15 10:12:34;;;;;;;23.20;14.70;;;;;;;;;;5037374;28;20475;-87
2023/12/15 10:15:01;;;;;;;19.87;12.97;;;;;;;;;;5030444;28;20468;-87
2023/12/15 10:17:29;;;;;;;20.00;12.70;;;;;;;;;;5025564;28;20508;-85
2023/12/15 10:20:06;;;;;;;21.00;14.00;;;;;;;;;;5025191;28;20483;-87
2023/12/15 10:22:34;;;;;;;17.93;12.40;;;;;;;;;;5027621;28;20501;-87
2023/12/15 10:25:21;;;;;;;22.40;14.03;;;;;;;;;;5040647;28;20469;-87
2023/12/15 10:27:49;;;;;;;22.13;13.90;;;;;;;;;;5035000;28;20455;-86
2023/12/15 10:30:20;;;;;;;20.73;13.67;;;;;;;;;;5034640;28;20520;-88
2023/12/15 10:32:48;;;;;;;21.23;13.20;;;;;;;;;;5040291;28;20514;-85
2023/12/15 10:35:18;;;;;;;25.40;13.70;;;;;;;;;;5016428;28;20466;-86
2023/12/15 10:37:49;;;;;;;20.13;12.50;;;;;;;;;;5034219;28;20481;-88
2023/12/15 10:40:16;;;;;;;21.50;13.60;;;;;;;;;;5026367;28;20461;-87
2023/12/15 10:42:44;;;;;;;22.10;14.40;;;;;;;;;;5035971;28;20558;-86
2023/12/15 10:45:14;;;;;;;20.80;14.50;;;;;;;;;;5033703;28;20435;-87
2023/12/15 10:48:06;;;;;;;23.03;13.33;;;;;;;;;;5037425;28;20445;-88
2023/12/15 10:50:34;;;;;;;19.40;13.90;;;;;;;;;;5033719;28;20454;-85
2023/12/15 10:53:05;;;;;;;17.17;12.10;;;;;;;;;;5034544;28;20485;-87
2023/12/15 10:55:33;;;;;;;21.40;13.40;;;;;;;;;;5039904;28;20447;-86
2023/12/15 10:58:12;;;;;;;;;;;;;;;;;;;;;
2023/12/15 11:00:43;;;;;;;18.27;11.90;;;;;;;;;;5046054;28;20536;-87
2023/12/15 11:03:13;;;;;;;19.90;12.40;;;;;;;;;;5037529;28;20556;-87
2023/12/15 11:05:43;;;;;;;21.63;12.93;;;;;;;;;;5032254;28;20452;-86
2023/12/15 11:08:14;;;;;;;19.90;12.50;;;;;;;;;;5042340;28;20460;-90
2023/12/15 11:10:42;;;;;;;23.33;13.80;;;;;;;;;;5051122;28;20448;-89
2023/12/15 11:13:48;;;;;;;19.33;12.40;;;;;;;;;;5056858;28;20495;-88
2023/12/15 11:16:17;;;;;;;18.93;12.87;;;;;;;;;;5056877;28;20444;-89
2023/12/15 11:18:45;;;;;;;16.97;11.50;;;;;;;;;;5196083;22;20477;-86
2023/12/15 11:21:14;;;;;;;24.07;13.07;;;;;;;;;;5053521;28;20467;-85
2023/12/15 11:23:53;;;;;;;19.43;11.33;;;;;;;;;;5059946;28;20536;-86
2023/12/15 11:26:37;;;;;;;26.17;13.57;;;;;;;;;;5062024;28;20463;-87
2023/12/15 11:29:09;;;;;;;24.00;12.87;;;;;;;;;;5063860;28;20446;-86
2023/12/15 11:31:36;;;;;;;22.10;13.10;;;;;;;;;;5054178;28;21010;-86
2023/12/15 11:34:04;;;;;;;22.90;13.60;;;;;;;;;;5059336;28;20455;-88
2023/12/15 11:36:40;;;;;;;23.10;13.50;;;;;;;;;;5058567;28;20441;-87
2023/12/15 11:39:12;;;;;;;22.60;14.10;;;;;;;;;;5057714;28;20472;-86
2023/12/15 11:41:40;;;;;;;19.13;13.00;;;;;;;;;;5053786;28;20439;-87
2023/12/15 11:44:07;;;;;;;24.70;14.00;;;;;;;;;;5061226;28;20449;-87
2023/12/15 11:46:38;;;;;;;23.17;12.80;;;;;;;;;;5066552;28;20444;-87
2023/12/15 11:49:22;;;;;;;23.97;13.30;;;;;;;;;;5072257;28;20444;-87
2023/12/15 11:51:50;;;;;;;23.10;13.63;;;;;;;;;;5074992;28;20461;-86
2023/12/15 11:54:25;;;;;;;22.40;13.53;;;;;;;;;;5074822;28;20469;-85
2023/12/15 11:56:54;;;;;;;20.90;12.23;;;;;;;;;;5068670;28;20454;-86
2023/12/15 11:59:24;;;;;;;24.13;12.90;;;;;;;;;;5065573;28;20505;-88
2023/12/15 12:01:52;;;;;;;19.60;12.27;;;;;;;;;;5079286;28;20515;-87
2023/12/15 12:04:20;;;;;;;25.73;12.97;;;;;;;;;;5065761;28;20447;-87
2023/12/15 12:06:47;;;;;;;20.67;12.47;;;;;;;;;;5082549;28;20460;-87
2023/12/15 12:09:17;;;;;;;25.07;13.60;;;;;;;;;;5071399;28;20486;-87
2023/12/15 12:11:47;;;;;;;21.97;14.47;;;;;;;;;;5075181;28;20465;-89
2023/12/15 12:14:15;;;;;;;19.23;12.03;;;;;;;;;;5076505;28;20448;-89
2023/12/15 12:16:55;;;;;;;25.60;14.17;;;;;;;;;;5071425;28;20473;-87
2023/12/15 12:19:36;;;;;;;20.70;12.90;;;;;;;;;;5067618;28;20574;-87
2023/12/15 12:22:25;;;;;;;21.77;12.90;;;;;;;;;;5041048;28;20448;-88
2023/12/15 12:24:55;;;;;;;21.60;13.47;;;;;;;;;;5065225;28;20543;-88
2023/12/15 12:27:34;;;;;;;20.63;13.90;;;;;;;;;;5066276;28;20455;-87
2023/12/15 12:30:11;;;;;;;25.67;14.00;;;;;;;;;;5065114;28;20959;-86
2023/12/15 12:32:40;;;;;;;20.03;12.27;;;;;;;;;;5059564;28;20489;-86
2023/12/15 12:35:08;;;;;;;23.57;13.80;;;;;;;;;;5066409;28;20495;-87
2023/12/15 12:37:36;;;;;;;19.13;12.60;;;;;;;;;;5064138;28;20457;-87
2023/12/15 12:40:04;;;;;;;24.07;14.40;;;;;;;;;;5070679;28;20440;-87
2023/12/15 12:42:34;;;;;;;22.33;13.80;;;;;;;;;;5064988;28;20468;-88
2023/12/15 12:45:02;;;;;;;21.43;13.13;;;;;;;;;;5069514;28;20427;-86
2023/12/15 12:47:41;;;;;;;20.67;13.53;;;;;;;;;;5072122;28;20448;-88
2023/12/15 12:50:09;;;;;;;25.77;13.40;;;;;;;;;;5067064;28;20464;-88
2023/12/15 12:52:40;;;;;;;23.73;12.43;;;;;;;;;;5064641;28;20476;-88
2023/12/15 12:55:16;;;;;;;23.00;12.60;;;;;;;;;;5065830;28;20489;-87
2023/12/15 12:57:43;;;;;;;21.20;13.57;;;;;;;;;;5065485;28;20485;-87
2023/12/15 13:00:13;;;;;;;24.97;13.33;;;;;;;;;;5072658;28;20456;-88
2023/12/15 13:02:42;;;;;;;18.83;11.40;;;;;;;;;;5068061;28;20472;-87
2023/12/15 13:05:11;;;;;;;24.13;13.37;;;;;;;;;;5061773;28;20541;-85
2023/12/15 13:07:38;;;;;;;21.73;11.53;;;;;;;;;;5060755;28;20441;-88
2023/12/15 13:10:08;;;;;;;19.40;11.73;;;;;;;;;;5070064;28;20449;-88
2023/12/15 13:12:42;;;;;;;22.53;12.33;;;;;;;;;;5061586;28;21014;-87
2023/12/15 13:15:12;;;;;;;18.13;11.70;;;;;;;;;;5060681;28;20449;-89
2023/12/15 13:17:42;;;;;;;20.60;14.00;;;;;;;;;;5077961;28;20513;-84
2023/12/15 13:20:09;;;;;;;20.70;11.90;;;;;;;;;;5076990;28;20483;-87
2023/12/15 13:22:41;;;;;;;22.07;12.17;;;;;;;;;;5070668;28;20967;-87
2023/12/15 13:25:13;;;;;;;23.90;12.77;;;;;;;;;;5064979;28;20507;-86
2023/12/15 13:27:41;;;;;;;19.63;12.20;;;;;;;;;;5066959;28;20457;-87
2023/12/15 13:30:17;;;;;;;18.80;11.80;;;;;;;;;;5066982;28;20452;-88
2023/12/15 13:32:47;;;;;;;24.80;12.77;;;;;;;;;;5070590;28;20535;-85
2023/12/15 13:35:17;;;;;;;24.13;13.57;;;;;;;;;;5070853;28;20939;-87
2023/12/15 13:37:49;;;;;;;24.70;14.37;;;;;;;;;;5058158;28;20454;-85
2023/12/15 13:40:22;;;;;;;20.17;11.77;;;;;;;;;;5072011;28;20532;-87
2023/12/15 13:42:54;;;;;;;21.13;11.53;;;;;;;;;;5051341;28;20473;-86
2023/12/15 13:45:28;;;;;;;17.93;11.57;;;;;;;;;;5059227;28;20796;-87
2023/12/15 13:47:58;;;;;;;22.70;11.63;;;;;;;;;;5068519;28;20447;-85
2023/12/15 13:50:30;;;;;;;21.90;11.50;;;;;;;;;;5066159;28;20448;-86
2023/12/15 13:52:59;;;;;;;22.37;13.33;;;;;;;;;;5076172;28;20468;-87
2023/12/15 13:55:35;;;;;;;17.40;12.33;;;;;;;;;;5076900;28;20434;-86
2023/12/15 13:58:09;;;;;;;22.27;13.20;;;;;;;;;;5073277;28;20484;-87
2023/12/15 14:00:36;;;;;;;19.67;12.33;;;;;;;;;;5060302;28;20472;-88
2023/12/15 14:03:05;;;;;;;26.77;13.63;;;;;;;;;;5068524;28;20844;-86
2023/12/15 14:05:33;;;;;;;19.53;13.30;;;;;;;;;;5065325;28;20456;-87
2023/12/15 14:08:18;;;;;;;19.87;13.37;;;;;;;;;;5067093;28;20440;-86
2023/12/15 14:10:48;;;;;;;20.93;11.20;;;;;;;;;;5071537;28;20585;-87
2023/12/15 14:13:16;;;;;;;16.17;11.30;;;;;;;;;;5075778;28;20465;-85
2023/12/15 14:15:43;;;;;;;24.03;13.40;;;;;;;;;;5076768;28;20456;-86
2023/12/15 14:18:12;;;;;;;15.57;11.43;;;;;;;;;;5063898;28;20461;-86
2023/12/15 14:20:45;;;;;;;19.20;13.43;;;;;;;;;;5065703;28;20452;-86
2023/12/15 14:23:13;;;;;;;20.57;13.13;;;;;;;;;;5065990;28;20550;-85
2023/12/15 14:25:43;;;;;;;20.77;12.60;;;;;;;;;;5065475;28;20437;-87
2023/12/15 14:28:11;;;;;;;14.87;11.20;;;;;;;;;;5063054;28;20491;-87
2023/12/15 14:30:40;;;;;;;20.30;11.43;;;;;;;;;;5082752;28;20559;-87
2023/12/15 14:33:12;;;;;;;18.17;14.30;;;;;;;;;;5066798;28;20482;-87
2023/12/15 14:35:45;;;;;;;17.47;10.63;;;;;;;;;;5064340;28;20823;-87
2023/12/15 14:38:13;;;;;;;18.10;12.23;;;;;;;;;;5058575;28;20496;-87
2023/12/15 14:40:44;;;;;;;18.43;12.07;;;;;;;;;;5067295;28;20448;-87
2023/12/15 14:43:11;;;;;;;22.20;12.90;;;;;;;;;;5064269;28;20479;-87
2023/12/15 14:45:39;;;;;;;19.43;11.20;;;;;;;;;;5063517;28;21016;-87
2023/12/15 14:48:07;;;;;;;19.83;11.60;;;;;;;;;;5056745;28;20458;-86